createdAt,value
2018-11-06T00:03:15.600Z,11.50
2018-11-06T00:08:20.967Z,11.46
2018-11-06T00:13:31.517Z,11.45
2018-11-06T00:18:36.237Z,11.37
2018-11-06T00:23:41.563Z,11.26
2018-11-06T00:28:46.089Z,11.27
2018-11-06T00:33:50.420Z,11.29
2018-11-06T00:38:55.326Z,11.25
2018-11-06T00:43:59.920Z,11.24
2018-11-06T00:49:04.317Z,11.20
2018-11-06T00:54:09.236Z,11.18
2018-11-06T00:59:13.749Z,11.14
2018-11-06T01:04:18.084Z,11.14
2018-11-06T01:09:23.398Z,11.12
2018-11-06T01:14:27.730Z,11.11
2018-11-06T01:19:33.391Z,11.11
2018-11-06T01:24:37.815Z,11.09
2018-11-06T01:29:42.564Z,11.10
2018-11-06T01:34:51.962Z,11.10
2018-11-06T01:39:56.486Z,11.09
2018-11-06T01:45:01.122Z,11.11
2018-11-06T01:50:06.292Z,11.12
2018-11-06T01:55:11.734Z,10.99
2018-11-06T02:00:17.171Z,10.90
2018-11-06T02:05:21.473Z,10.90
2018-11-06T02:10:26.103Z,10.88
2018-11-06T02:15:30.518Z,10.85
2018-11-06T02:20:34.965Z,10.79
2018-11-06T02:25:39.329Z,10.78
2018-11-06T02:30:43.339Z,10.75
2018-11-06T02:35:48.173Z,10.76
2018-11-06T02:40:53.630Z,10.67
2018-11-06T02:45:58.651Z,10.65
2018-11-06T02:51:04.633Z,10.61
2018-11-06T02:56:10.329Z,10.59
2018-11-06T03:01:15.067Z,10.60
2018-11-06T03:06:19.592Z,10.54
2018-11-06T03:11:24.598Z,10.47
2018-11-06T03:16:34.287Z,10.42
2018-11-06T03:21:38.863Z,10.47
2018-11-06T03:26:43.763Z,10.51
2018-11-06T03:31:49.561Z,10.58
2018-11-06T03:36:53.973Z,10.58
2018-11-06T03:41:58.387Z,10.54
2018-11-06T03:47:03.045Z,10.50
2018-11-06T03:52:07.715Z,10.44
2018-11-06T03:57:12.109Z,10.39
2018-11-06T04:02:16.419Z,10.35
2018-11-06T04:07:21.408Z,10.33
2018-11-06T04:12:26.260Z,10.23
2018-11-06T04:17:32.501Z,10.20
2018-11-06T04:22:36.807Z,10.14
2018-11-06T04:27:41.137Z,10.09
2018-11-06T04:32:46.437Z,10.06
2018-11-06T04:37:50.797Z,10.04
2018-11-06T04:42:56.068Z,10.08
2018-11-06T04:48:00.719Z,10.04
2018-11-06T04:53:06.134Z,10.03
2018-11-06T04:58:11.869Z,9.98
2018-11-06T05:03:16.496Z,9.92
2018-11-06T05:08:20.999Z,9.89
2018-11-06T05:13:25.671Z,9.88
2018-11-06T05:18:30.040Z,9.92
2018-11-06T05:23:34.653Z,9.99
2018-11-06T05:28:40.314Z,10.06
2018-11-06T05:33:45.152Z,10.17
2018-11-06T05:38:49.582Z,10.22
2018-11-06T05:44:03.471Z,10.24
2018-11-06T05:49:07.754Z,10.28
2018-11-06T05:54:12.886Z,10.27
2018-11-06T05:59:17.169Z,10.27
2018-11-06T06:04:36.026Z,10.27
2018-11-06T06:09:40.517Z,10.31
2018-11-06T06:14:44.901Z,10.30
2018-11-06T06:19:50.325Z,10.26
2018-11-06T06:24:55.784Z,10.26
2018-11-06T06:30:03.235Z,10.25
2018-11-06T06:35:08.810Z,10.27
2018-11-06T06:40:15.051Z,10.30
2018-11-06T06:45:29.592Z,10.28
2018-11-06T06:50:35.524Z,10.24
2018-11-06T06:55:40.594Z,10.26
2018-11-06T07:00:44.887Z,10.27
2018-11-06T07:05:59.136Z,10.25
2018-11-06T07:11:03.582Z,10.33
2018-11-06T07:16:09.533Z,10.39
2018-11-06T07:21:14.099Z,10.47
2018-11-06T07:26:41.030Z,10.56
2018-11-06T07:31:45.308Z,10.64
2018-11-06T07:36:50.128Z,10.72
2018-11-06T07:41:54.638Z,10.80
2018-11-06T07:47:04.698Z,10.95
2018-11-06T07:52:10.924Z,11.17
2018-11-06T07:57:15.228Z,11.28
2018-11-06T08:02:19.600Z,11.36
2018-11-06T08:07:42.860Z,11.45
2018-11-06T08:12:49.612Z,11.46
2018-11-06T08:17:54.088Z,11.55
2018-11-06T08:22:58.392Z,11.70
2018-11-06T08:28:02.881Z,11.81
2018-11-06T08:33:07.258Z,11.90
2018-11-06T08:38:11.560Z,11.98
2018-11-06T08:43:15.958Z,12.03
2018-11-06T08:48:20.595Z,12.09
2018-11-06T08:53:24.790Z,12.16
2018-11-06T08:58:29.245Z,12.25
2018-11-06T09:03:33.721Z,12.33
2018-11-06T09:08:38.456Z,12.41
2018-11-06T09:13:43.898Z,12.49
2018-11-06T09:18:55.777Z,12.61
2018-11-06T09:24:00.408Z,12.64
2018-11-06T09:29:04.917Z,12.71
2018-11-06T09:34:09.960Z,12.84
2018-11-06T09:39:15.423Z,12.94
2018-11-06T09:44:19.780Z,12.97
2018-11-06T09:49:25.271Z,13.10
2018-11-06T09:54:32.466Z,13.27
2018-11-06T09:59:37.284Z,13.47
2018-11-06T10:04:41.991Z,13.65
2018-11-06T10:09:46.461Z,13.85
2018-11-06T10:14:52.022Z,14.09
2018-11-06T10:19:56.298Z,14.25
2018-11-06T10:25:00.641Z,14.39
2018-11-06T10:30:06.582Z,14.66
2018-11-06T10:35:20.361Z,15.20
2018-11-06T10:40:24.779Z,15.86
2018-11-06T10:45:29.567Z,16.47
2018-11-06T10:50:37.073Z,17.22
2018-11-06T10:55:44.132Z,17.96
2018-11-06T11:00:54.596Z,18.20
2018-11-06T11:06:13.740Z,18.44
2018-11-06T11:11:18.367Z,18.74
2018-11-06T11:16:25.996Z,19.08
2018-11-06T11:21:32.736Z,19.04
2018-11-06T11:26:37.172Z,18.90
2018-11-06T11:31:41.855Z,18.53
2018-11-06T11:36:47.045Z,18.49
2018-11-06T11:41:51.687Z,18.56
2018-11-06T11:46:56.334Z,18.34
2018-11-06T11:52:01.039Z,18.17
2018-11-06T11:57:06.018Z,18.09
2018-11-06T12:02:10.521Z,17.87
2018-11-06T12:07:15.012Z,17.90
2018-11-06T12:12:19.539Z,18.08
2018-11-06T12:17:25.097Z,18.11
2018-11-06T12:22:29.706Z,18.36
2018-11-06T12:27:34.021Z,18.64
2018-11-06T12:32:38.784Z,18.76
2018-11-06T12:37:48.181Z,19.03
2018-11-06T12:42:54.980Z,19.29
2018-11-06T12:47:59.539Z,19.43
2018-11-06T12:53:05.620Z,19.71
2018-11-06T12:58:10.635Z,20.78
2018-11-06T13:03:14.166Z,22.05
2018-11-06T13:08:17.660Z,23.20
2018-11-06T13:13:22.071Z,23.88
2018-11-06T13:18:26.391Z,24.69
2018-11-06T13:23:35.490Z,25.31
2018-11-06T13:28:39.497Z,24.73
2018-11-06T13:33:43.101Z,23.70
2018-11-06T13:38:47.157Z,21.61
2018-11-06T13:43:51.157Z,20.10
2018-11-06T13:48:54.715Z,19.23
2018-11-06T13:53:58.922Z,18.50
2018-11-06T13:59:05.702Z,18.00
2018-11-06T14:04:10.408Z,17.78
2018-11-06T14:09:15.229Z,17.60
2018-11-06T14:14:19.955Z,17.46
2018-11-06T14:19:25.910Z,17.39
2018-11-06T14:24:30.389Z,17.30
2018-11-06T14:29:34.772Z,17.17
2018-11-06T14:34:39.508Z,17.14
2018-11-06T14:39:44.108Z,17.12
2018-11-06T14:44:58.564Z,17.04
2018-11-06T14:50:03.065Z,16.99
2018-11-06T14:55:09.002Z,16.93
2018-11-06T15:00:20.735Z,16.90
2018-11-06T15:05:25.386Z,16.90
2018-11-06T15:10:30.229Z,16.79
2018-11-06T15:15:34.785Z,16.71
2018-11-06T15:20:39.910Z,16.60
2018-11-06T15:25:45.212Z,16.47
2018-11-06T15:30:49.935Z,16.39
2018-11-06T15:35:59.393Z,16.31
2018-11-06T15:41:04.039Z,16.21
2018-11-06T15:46:14.566Z,16.13
2018-11-06T15:51:19.405Z,16.10
2018-11-06T15:56:24.549Z,16.03
2018-11-06T16:01:29.433Z,15.98
2018-11-06T16:06:34.273Z,15.92
2018-11-06T16:11:38.974Z,15.88
2018-11-06T16:16:44.222Z,15.80
2018-11-06T16:21:57.115Z,15.76
2018-11-06T16:27:03.008Z,15.70
2018-11-06T16:32:24.162Z,15.59
2018-11-06T16:43:17.590Z,15.45
2018-11-06T16:48:28.303Z,15.40
2018-11-06T16:53:39.430Z,15.33
2018-11-06T16:59:01.981Z,15.34
2018-11-06T17:04:17.111Z,15.24
2018-11-06T17:09:27.131Z,15.16
2018-11-06T17:14:33.733Z,15.23
2018-11-06T17:19:41.116Z,15.08
2018-11-06T17:24:48.505Z,14.98
2018-11-06T17:29:56.918Z,14.95
2018-11-06T17:35:02.761Z,14.89
2018-11-06T17:40:10.049Z,14.81
2018-11-06T17:45:18.661Z,14.69
2018-11-06T17:50:29.432Z,14.70
2018-11-06T17:55:35.674Z,14.62
2018-11-06T18:00:47.485Z,14.53
2018-11-06T18:05:56.467Z,14.46
2018-11-06T18:11:14.172Z,14.42
2018-11-06T18:16:19.275Z,14.39
2018-11-06T18:21:29.155Z,14.34
2018-11-06T18:26:34.911Z,14.29
2018-11-06T18:31:41.773Z,14.23
2018-11-06T18:36:46.841Z,14.17
2018-11-06T18:41:51.957Z,14.16
2018-11-06T18:47:02.515Z,14.08
2018-11-06T18:52:22.146Z,14.03
2018-11-06T18:57:33.387Z,13.98
2018-11-06T19:02:39.680Z,13.95
2018-11-06T19:07:45.433Z,13.93
2018-11-06T19:12:51.171Z,13.86
2018-11-06T19:17:56.756Z,13.83
2018-11-06T19:23:13.438Z,13.76
2018-11-06T19:28:18.809Z,13.72
2018-11-06T19:33:27.619Z,13.73
2018-11-06T19:38:37.284Z,13.70
2018-11-06T19:43:50.113Z,13.69
2018-11-06T19:48:56.563Z,13.65
2018-11-06T19:54:01.712Z,13.61
2018-11-06T19:59:10.560Z,13.55
2018-11-06T20:04:27.496Z,13.56
2018-11-06T20:09:32.207Z,13.58
2018-11-06T20:14:46.319Z,13.55
2018-11-06T20:19:54.213Z,13.49
2018-11-06T20:25:05.333Z,13.47
2018-11-06T20:30:13.680Z,13.41
2018-11-06T20:35:18.638Z,13.38
2018-11-06T20:40:26.685Z,13.34
2018-11-06T20:45:32.222Z,13.32
2018-11-06T20:50:38.035Z,13.27
2018-11-06T20:55:50.254Z,13.28
2018-11-06T21:00:55.927Z,13.20
2018-11-06T21:06:02.568Z,13.10
2018-11-06T21:11:11.115Z,13.01
2018-11-06T21:16:27.354Z,13.02
2018-11-06T21:21:36.643Z,12.96
2018-11-06T21:26:42.013Z,12.93
2018-11-06T21:31:46.720Z,12.92
2018-11-06T21:36:51.353Z,12.90
2018-11-06T21:41:56.325Z,12.84
2018-11-06T21:47:01.463Z,12.74
2018-11-06T21:52:06.233Z,12.63
2018-11-06T21:57:11.003Z,12.48
2018-11-06T22:02:15.618Z,12.44
2018-11-06T22:07:20.472Z,12.36
2018-11-06T22:12:25.891Z,12.29
2018-11-06T22:17:31.388Z,12.29
2018-11-06T22:22:37.677Z,12.22
2018-11-06T22:27:45.707Z,12.17
2018-11-06T22:32:50.613Z,12.11
2018-11-06T22:38:05.804Z,12.08
2018-11-06T22:43:12.675Z,12.00
2018-11-06T22:48:18.213Z,11.99
2018-11-06T22:53:32.577Z,11.93
2018-11-06T22:58:38.873Z,11.94
2018-11-06T23:03:53.760Z,11.86
2018-11-06T23:09:02.537Z,11.80
2018-11-06T23:14:09.261Z,11.82
2018-11-06T23:19:20.176Z,11.76
2018-11-06T23:24:38.868Z,11.74
2018-11-06T23:29:44.105Z,11.69
2018-11-06T23:34:53.727Z,11.70
2018-11-06T23:39:58.714Z,11.65
2018-11-06T23:45:05.109Z,11.64
2018-11-06T23:50:11.400Z,11.64
2018-11-06T23:55:18.351Z,11.66
